createdAt,value
2022-08-07T00:02:46.385Z,29.67
2022-08-07T00:07:39.258Z,29.99
2022-08-07T00:12:31.221Z,29.66
2022-08-07T00:22:24.278Z,29.65
2022-08-07T00:32:01.283Z,29.86
2022-08-07T00:36:53.715Z,29.98
2022-08-07T00:41:53.355Z,29.93
2022-08-07T00:46:38.928Z,29.8
2022-08-07T00:51:57.867Z,29.85
2022-08-07T00:56:30.119Z,30.04
2022-08-07T01:01:16.797Z,30.06
2022-08-07T01:06:08.969Z,30.09
2022-08-07T01:12:05.552Z,30.2
2022-08-07T01:16:00.776Z,29.81
2022-08-07T01:20:57.138Z,30.2
2022-08-07T01:25:40.126Z,30.18
2022-08-07T01:30:31.139Z,30
2022-08-07T01:35:24.311Z,30.12
2022-08-07T01:40:16.142Z,30.13
2022-08-07T01:45:09.596Z,30.25
2022-08-07T01:50:00.896Z,29.82
2022-08-07T01:54:53.722Z,29.88
2022-08-07T01:59:46.073Z,30.09
2022-08-07T02:04:38.789Z,30.19
2022-08-07T02:09:33.661Z,30.04
2022-08-07T02:14:35.593Z,30.34
2022-08-07T02:20:03.714Z,30.35
2022-08-07T02:24:09.232Z,30.34
2022-08-07T02:29:01.456Z,30.21
2022-08-07T02:34:01.433Z,30.28
2022-08-07T02:38:50.746Z,30.11
2022-08-07T02:43:39.406Z,30.39
2022-08-07T02:48:31.326Z,30.4
2022-08-07T02:53:23.667Z,30.39
2022-08-07T02:58:16.381Z,30.42
2022-08-07T03:03:08.561Z,30.66
2022-08-07T03:08:05.517Z,30.43
2022-08-07T03:12:53.923Z,30.11
2022-08-07T03:17:53.154Z,30.45
2022-08-07T03:22:39.185Z,30.54
2022-08-07T03:27:42.257Z,30.61
2022-08-07T03:32:24.113Z,30.3
2022-08-07T03:37:16.592Z,30.56
2022-08-07T03:42:09.007Z,30.67
2022-08-07T03:47:11.572Z,30.62
2022-08-07T03:51:55.257Z,30.69
2022-08-07T03:56:59.756Z,30.78
2022-08-07T04:01:38.429Z,30.71
2022-08-07T04:06:36.524Z,30.72
2022-08-07T04:12:25.977Z,30.92
2022-08-07T04:16:15.915Z,31.14
2022-08-07T04:21:08.151Z,31.11
2022-08-07T04:26:00.691Z,31
2022-08-07T04:30:55.672Z,30.99
2022-08-07T04:35:50.341Z,30.96
2022-08-07T04:40:43.984Z,30.9
2022-08-07T04:45:44.814Z,30.67
2022-08-07T04:50:22.247Z,31.41
2022-08-07T04:55:15.104Z,31.94
2022-08-07T05:00:08.125Z,32.34
2022-08-07T05:04:58.720Z,34.35
2022-08-07T05:09:51.513Z,33.17
2022-08-07T05:14:51.930Z,33.35
2022-08-07T05:19:44.353Z,36.77
2022-08-07T05:24:30.541Z,35.15
2022-08-07T05:29:20.987Z,35.08
2022-08-07T05:34:13.091Z,36.39
2022-08-07T05:40:07.285Z,38.31
2022-08-07T05:44:08.902Z,36.53
2022-08-07T05:48:57.387Z,39.72
2022-08-07T05:54:09.125Z,42.8
2022-08-07T05:58:36.509Z,39.08
2022-08-07T06:08:30.548Z,43.55
2022-08-07T06:18:07.866Z,40.91
2022-08-07T06:28:00.810Z,40.79
2022-08-07T06:37:43.804Z,42.36
2022-08-07T06:42:32.897Z,41.52
2022-08-07T06:47:21.301Z,40.84
2022-08-07T06:52:13.558Z,40.92
2022-08-07T06:57:06.304Z,41.4
2022-08-07T07:01:58.425Z,41.39
2022-08-07T07:06:57.399Z,40.54
2022-08-07T07:16:31.674Z,40.31
2022-08-07T07:21:26.908Z,39.63
2022-08-07T07:26:31.975Z,40
2022-08-07T07:31:10.303Z,40.17
2022-08-07T07:36:05.149Z,39.72
2022-08-07T07:40:58.822Z,38.77
2022-08-07T07:46:36.402Z,38.61
2022-08-07T07:50:40.620Z,37.74
2022-08-07T07:55:37.241Z,36.8
2022-08-07T08:00:30.005Z,38.11
2022-08-07T08:05:18.343Z,36.26
2022-08-07T08:10:14.731Z,36.01
2022-08-07T08:15:06.955Z,35.84
2022-08-07T08:20:16.721Z,35.54
2022-08-07T08:24:51.212Z,34.96
2022-08-07T08:29:45.273Z,34.88
2022-08-07T08:34:34.988Z,34.78
2022-08-07T08:39:39.213Z,34.03
2022-08-07T08:44:20.667Z,34.31
2022-08-07T08:49:12.673Z,34.38
2022-08-07T08:54:05.216Z,34.26
2022-08-07T08:58:57.930Z,34.6
2022-08-07T09:03:52.565Z,34.66
2022-08-07T09:08:42.832Z,34.61
2022-08-07T09:13:37.182Z,34.4
2022-08-07T09:18:27.823Z,34.4
2022-08-07T09:24:34.302Z,34.3
2022-08-07T09:29:22.319Z,34.15
2022-08-07T09:33:16.938Z,34.01
2022-08-07T09:37:57.820Z,33.87
2022-08-07T09:42:51.353Z,33.79
2022-08-07T09:47:50.999Z,33.53
2022-08-07T09:52:35.982Z,33.14
2022-08-07T09:57:28.603Z,33.32
2022-08-07T10:02:20.933Z,32.76
2022-08-07T10:07:24.743Z,32.75
2022-08-07T10:12:11.958Z,32.7
2022-08-07T10:16:59.464Z,33.02
2022-08-07T10:22:15.172Z,33.08
2022-08-07T10:26:44.357Z,32.97
2022-08-07T10:31:37.260Z,33.24
2022-08-07T10:36:30.233Z,32.87
2022-08-07T10:41:47.690Z,32.89
2022-08-07T10:46:15.622Z,32.71
2022-08-07T10:51:16.550Z,32.61
2022-08-07T10:56:02.332Z,32.33
2022-08-07T11:00:55.915Z,32.31
2022-08-07T11:05:49.355Z,32.58
2022-08-07T11:10:39.497Z,32.47
2022-08-07T11:15:32.272Z,32.51
2022-08-07T11:20:24.951Z,32.67
2022-08-07T11:25:17.275Z,31.55
2022-08-07T11:30:18.131Z,32.44
2022-08-07T11:35:02.487Z,32.41
2022-08-07T11:39:59.730Z,31.85
2022-08-07T11:44:52.184Z,31.57
2022-08-07T11:49:50.957Z,32.26
2022-08-07T11:54:32.820Z,31.9
2022-08-07T12:00:08.728Z,31.68
2022-08-07T12:04:17.787Z,31.38
2022-08-07T12:09:11.535Z,31.19
2022-08-07T12:14:02.754Z,31.39
2022-08-07T12:18:55.387Z,31.05
2022-08-07T12:24:06.438Z,31.41
2022-08-07T12:28:45.105Z,30.95
2022-08-07T12:33:56.774Z,31.25
2022-08-07T12:38:29.363Z,31.34
2022-08-07T12:44:03.262Z,30.89
2022-08-07T12:48:13.011Z,30.55
2022-08-07T12:53:05.124Z,30.72
2022-08-07T12:58:00.593Z,30.72
2022-08-07T13:02:49.516Z,30.49
2022-08-07T13:08:13.160Z,30.6
2022-08-07T13:12:33.619Z,29.95
2022-08-07T13:17:40.150Z,30.37
2022-08-07T13:22:19.602Z,30.34
2022-08-07T13:27:12.827Z,30.24
2022-08-07T13:32:15.308Z,30.13
2022-08-07T13:36:56.631Z,30.28
2022-08-07T13:41:49.169Z,30.2
2022-08-07T13:46:49.092Z,29.94
2022-08-07T13:52:05.802Z,30.07
2022-08-07T13:56:35.147Z,29.87
2022-08-07T14:01:20.526Z,29.8
2022-08-07T14:11:11.289Z,29.65
2022-08-07T14:20:54.296Z,29.79
2022-08-07T14:30:37.030Z,29.2
2022-08-07T14:35:43.487Z,29.52
2022-08-07T14:40:26.101Z,29.53
2022-08-07T14:45:20.968Z,29.67
2022-08-07T14:50:06.556Z,29.26
2022-08-07T14:54:59.064Z,29.65
2022-08-07T15:00:03.981Z,29.28
2022-08-07T15:04:52.889Z,28.91
2022-08-07T15:09:58.706Z,28.92
2022-08-07T15:14:30.527Z,29.18
2022-08-07T15:19:21.688Z,29.21
2022-08-07T15:25:03.480Z,29.28
2022-08-07T15:30:03.814Z,29.19
2022-08-07T15:33:59.424Z,29.18
2022-08-07T15:38:59.435Z,29.04
2022-08-07T15:43:53.942Z,29.06
2022-08-07T15:48:37.901Z,29.47
2022-08-07T15:53:41.856Z,29.5
2022-08-07T15:58:23.635Z,29.61
2022-08-07T16:03:20.745Z,29.78
2022-08-07T16:08:29.521Z,29.43
2022-08-07T16:13:05.601Z,29.72
2022-08-07T16:18:01.067Z,29.8
2022-08-07T16:22:54.646Z,29.75
2022-08-07T16:27:41.534Z,29.64
2022-08-07T16:32:33.299Z,29.96
2022-08-07T16:38:03.261Z,29.43
2022-08-07T16:42:17.493Z,29.22
2022-08-07T16:47:18.754Z,29.3
2022-08-07T16:56:55.684Z,29.2
2022-08-07T17:01:48.433Z,28.88
2022-08-07T17:06:45.291Z,29.2
2022-08-07T17:12:01.591Z,29.06
2022-08-07T17:16:26.310Z,28.37
2022-08-07T17:21:22.621Z,30.49
2022-08-07T17:26:23.082Z,28.96
2022-08-07T17:31:15.808Z,29.34
2022-08-07T17:35:56.899Z,28.09
2022-08-07T17:40:50.538Z,28.79
2022-08-07T17:45:42.288Z,28.37
2022-08-07T17:50:34.792Z,27.38
2022-08-07T17:55:54.285Z,27.72
2022-08-07T18:00:27.361Z,28.37
2022-08-07T18:05:21.116Z,28.49
2022-08-07T18:10:07.802Z,27.41
2022-08-07T18:14:57.375Z,27.98
2022-08-07T18:21:04.868Z,27.81
2022-08-07T18:24:42.505Z,27.85
2022-08-07T18:30:05.059Z,27.65
2022-08-07T18:34:37.321Z,27.99
2022-08-07T18:40:05.995Z,27.94
2022-08-07T18:44:13.106Z,27.93
2022-08-07T18:50:06.681Z,28.03
2022-08-07T18:53:58.211Z,28
2022-08-07T18:58:51.042Z,27.54
2022-08-07T19:08:36.427Z,28.51
2022-08-07T19:13:28.511Z,28.47
2022-08-07T19:18:34.340Z,28.55
2022-08-07T19:28:31.546Z,28.74
2022-08-07T19:32:59.525Z,28.98
2022-08-07T19:37:55.797Z,28.89
2022-08-07T19:42:44.416Z,28.61
2022-08-07T19:47:37.395Z,28.51
2022-08-07T19:52:29.661Z,28.34
2022-08-07T19:57:53.183Z,28.3
2022-08-07T20:02:19.401Z,28.56
2022-08-07T20:07:08.845Z,28.7
2022-08-07T20:12:01.784Z,28.75
2022-08-07T20:16:54.558Z,28.95
2022-08-07T20:21:47.027Z,29.55
2022-08-07T20:26:38.861Z,29.62
2022-08-07T20:31:30.271Z,29.56
2022-08-07T20:36:22.954Z,29.49
2022-08-07T20:41:15.544Z,29.42
2022-08-07T20:46:25.243Z,29.45
2022-08-07T20:51:00.732Z,29.57
2022-08-07T20:55:53.351Z,29.62
2022-08-07T21:00:45.872Z,29.63
2022-08-07T21:05:43.167Z,29.97
2022-08-07T21:10:31.529Z,29.88
2022-08-07T21:15:47.456Z,29.73
2022-08-07T21:20:19.029Z,29.73
2022-08-07T21:25:11.942Z,30.24
2022-08-07T21:30:01.424Z,29.89
2022-08-07T21:34:53.785Z,30.02
2022-08-07T21:39:51.431Z,30.06
2022-08-07T21:44:38.936Z,30.07
2022-08-07T21:49:40.847Z,30.08
2022-08-07T21:54:24.231Z,30.26
2022-08-07T21:59:17.136Z,30.33
2022-08-07T22:04:09.613Z,30.37
2022-08-07T22:09:02.254Z,30.44
2022-08-07T22:13:55.279Z,30.26
2022-08-07T22:18:47.421Z,30.75
2022-08-07T22:23:40.152Z,30.6
2022-08-07T22:28:32.811Z,30.52
2022-08-07T22:33:37.102Z,30.74
2022-08-07T22:38:20.535Z,30.75
2022-08-07T22:43:10.740Z,30.89
2022-08-07T22:48:03.183Z,30.62
2022-08-07T22:52:56.029Z,30.61
2022-08-07T22:57:48.336Z,30.91
2022-08-07T23:02:40.998Z,30.86
2022-08-07T23:07:40.084Z,31.02
2022-08-07T23:12:32.499Z,30.83
2022-08-07T23:17:19.913Z,30.99
2022-08-07T23:22:10.919Z,30.92
2022-08-07T23:27:03.476Z,30.94
2022-08-07T23:32:50.407Z,30.95
2022-08-07T23:36:54.778Z,30.92
2022-08-07T23:41:47.909Z,31.03
2022-08-07T23:46:33.914Z,31.13
2022-08-07T23:52:59.206Z,31.16
2022-08-07T23:56:20.715Z,31.17
